sensor_id;sensor_type;location;lat;lon;timestamp;temperature;humidity
82001;SHT30;71522;50.870;3.524;2023-07-31T00:01:16;17.24;80.75
82001;SHT30;71522;50.870;3.524;2023-07-31T00:03:42;17.20;80.78
82001;SHT30;71522;50.870;3.524;2023-07-31T00:06:08;17.28;81.02
82001;SHT30;71522;50.870;3.524;2023-07-31T00:08:34;17.20;80.98
82001;SHT30;71522;50.870;3.524;2023-07-31T00:11:00;17.27;80.80
82001;SHT30;71522;50.870;3.524;2023-07-31T00:13:26;17.30;81.19
82001;SHT30;71522;50.870;3.524;2023-07-31T00:15:52;17.24;80.88
82001;SHT30;71522;50.870;3.524;2023-07-31T00:18:17;17.24;80.70
82001;SHT30;71522;50.870;3.524;2023-07-31T00:20:43;17.35;80.48
82001;SHT30;71522;50.870;3.524;2023-07-31T00:23:09;17.42;80.44
82001;SHT30;71522;50.870;3.524;2023-07-31T00:25:34;17.39;80.53
82001;SHT30;71522;50.870;3.524;2023-07-31T00:28:00;17.37;80.44
82001;SHT30;71522;50.870;3.524;2023-07-31T00:30:26;17.34;80.40
82001;SHT30;71522;50.870;3.524;2023-07-31T00:32:52;17.39;80.86
82001;SHT30;71522;50.870;3.524;2023-07-31T00:35:18;17.45;80.46
82001;SHT30;71522;50.870;3.524;2023-07-31T00:37:43;17.38;80.44
82001;SHT30;71522;50.870;3.524;2023-07-31T00:40:09;17.39;80.68
82001;SHT30;71522;50.870;3.524;2023-07-31T00:42:35;17.39;80.57
82001;SHT30;71522;50.870;3.524;2023-07-31T00:45:01;17.39;80.42
82001;SHT30;71522;50.870;3.524;2023-07-31T00:47:27;17.39;80.43
82001;SHT30;71522;50.870;3.524;2023-07-31T00:49:55;17.37;80.31
82001;SHT30;71522;50.870;3.524;2023-07-31T00:52:22;17.39;80.11
82001;SHT30;71522;50.870;3.524;2023-07-31T00:54:49;17.41;79.82
82001;SHT30;71522;50.870;3.524;2023-07-31T00:57:15;17.48;80.07
82001;SHT30;71522;50.870;3.524;2023-07-31T00:59:41;17.44;79.94
82001;SHT30;71522;50.870;3.524;2023-07-31T01:02:06;17.55;79.72
82001;SHT30;71522;50.870;3.524;2023-07-31T01:04:32;17.58;79.89
82001;SHT30;71522;50.870;3.524;2023-07-31T01:07:02;17.51;79.64
82001;SHT30;71522;50.870;3.524;2023-07-31T01:10:06;17.58;79.93
82001;SHT30;71522;50.870;3.524;2023-07-31T01:12:34;17.59;79.93
82001;SHT30;71522;50.870;3.524;2023-07-31T01:17:30;17.61;79.85
82001;SHT30;71522;50.870;3.524;2023-07-31T01:20:01;17.68;79.82
82001;SHT30;71522;50.870;3.524;2023-07-31T01:22:49;17.62;79.71
82001;SHT30;71522;50.870;3.524;2023-07-31T01:25:25;17.68;79.72
82001;SHT30;71522;50.870;3.524;2023-07-31T01:28:14;17.75;80.08
82001;SHT30;71522;50.870;3.524;2023-07-31T01:30:47;17.79;80.24
82001;SHT30;71522;50.870;3.524;2023-07-31T01:33:16;17.81;80.15
82001;SHT30;71522;50.870;3.524;2023-07-31T01:35:44;17.90;80.24
82001;SHT30;71522;50.870;3.524;2023-07-31T01:38:10;17.93;80.22
82001;SHT30;71522;50.870;3.524;2023-07-31T01:40:36;17.97;80.27
82001;SHT30;71522;50.870;3.524;2023-07-31T01:43:02;17.99;80.61
82001;SHT30;71522;50.870;3.524;2023-07-31T01:45:28;18.03;80.81
82001;SHT30;71522;50.870;3.524;2023-07-31T01:47:53;18.06;81.08
82001;SHT30;71522;50.870;3.524;2023-07-31T01:50:19;18.07;81.53
82001;SHT30;71522;50.870;3.524;2023-07-31T01:52:45;18.07;81.39
82001;SHT30;71522;50.870;3.524;2023-07-31T01:55:11;18.07;81.77
82001;SHT30;71522;50.870;3.524;2023-07-31T01:57:37;18.05;82.09
82001;SHT30;71522;50.870;3.524;2023-07-31T02:00:03;18.02;82.19
82001;SHT30;71522;50.870;3.524;2023-07-31T02:02:29;18.00;82.40
82001;SHT30;71522;50.870;3.524;2023-07-31T02:04:55;17.95;82.64
82001;SHT30;71522;50.870;3.524;2023-07-31T02:07:20;17.97;82.08
82001;SHT30;71522;50.870;3.524;2023-07-31T02:09:46;17.96;82.46
82001;SHT30;71522;50.870;3.524;2023-07-31T02:12:14;17.93;82.32
82001;SHT30;71522;50.870;3.524;2023-07-31T02:14:40;17.93;82.73
82001;SHT30;71522;50.870;3.524;2023-07-31T02:17:06;17.89;82.88
82001;SHT30;71522;50.870;3.524;2023-07-31T02:19:32;17.92;83.01
82001;SHT30;71522;50.870;3.524;2023-07-31T02:21:58;17.87;83.28
82001;SHT30;71522;50.870;3.524;2023-07-31T02:24:25;17.81;83.22
82001;SHT30;71522;50.870;3.524;2023-07-31T02:26:51;17.87;83.22
82001;SHT30;71522;50.870;3.524;2023-07-31T02:29:16;17.86;83.51
82001;SHT30;71522;50.870;3.524;2023-07-31T02:31:42;17.83;83.39
82001;SHT30;71522;50.870;3.524;2023-07-31T02:34:08;17.86;83.55
82001;SHT30;71522;50.870;3.524;2023-07-31T02:36:34;17.87;83.36
82001;SHT30;71522;50.870;3.524;2023-07-31T02:39:00;17.93;83.33
82001;SHT30;71522;50.870;3.524;2023-07-31T02:41:26;17.96;83.27
82001;SHT30;71522;50.870;3.524;2023-07-31T02:43:51;17.93;83.32
82001;SHT30;71522;50.870;3.524;2023-07-31T02:46:17;17.93;83.29
82001;SHT30;71522;50.870;3.524;2023-07-31T02:48:43;17.90;83.50
82001;SHT30;71522;50.870;3.524;2023-07-31T02:51:12;17.87;83.89
82001;SHT30;71522;50.870;3.524;2023-07-31T02:53:37;17.89;83.41
82001;SHT30;71522;50.870;3.524;2023-07-31T02:56:03;17.93;83.76
82001;SHT30;71522;50.870;3.524;2023-07-31T02:58:29;17.87;84.22
82001;SHT30;71522;50.870;3.524;2023-07-31T03:00:54;17.86;84.26
82001;SHT30;71522;50.870;3.524;2023-07-31T03:03:20;17.83;84.40
82001;SHT30;71522;50.870;3.524;2023-07-31T03:05:46;17.83;84.70
82001;SHT30;71522;50.870;3.524;2023-07-31T03:08:12;17.76;84.93
82001;SHT30;71522;50.870;3.524;2023-07-31T03:10:38;17.75;85.07
82001;SHT30;71522;50.870;3.524;2023-07-31T03:13:03;17.72;85.29
82001;SHT30;71522;50.870;3.524;2023-07-31T03:15:29;17.71;85.49
82001;SHT30;71522;50.870;3.524;2023-07-31T03:17:55;17.66;85.59
82001;SHT30;71522;50.870;3.524;2023-07-31T03:20:21;17.68;85.55
82001;SHT30;71522;50.870;3.524;2023-07-31T03:22:47;17.64;85.57
82001;SHT30;71522;50.870;3.524;2023-07-31T03:25:12;17.66;85.55
82001;SHT30;71522;50.870;3.524;2023-07-31T03:27:39;17.65;85.57
82001;SHT30;71522;50.870;3.524;2023-07-31T03:30:06;17.65;85.45
82001;SHT30;71522;50.870;3.524;2023-07-31T03:32:31;17.62;85.64
82001;SHT30;71522;50.870;3.524;2023-07-31T03:35:00;17.61;85.56
82001;SHT30;71522;50.870;3.524;2023-07-31T03:37:26;17.65;85.69
82001;SHT30;71522;50.870;3.524;2023-07-31T03:39:52;17.68;85.55
82001;SHT30;71522;50.870;3.524;2023-07-31T03:42:17;17.65;85.43
82001;SHT30;71522;50.870;3.524;2023-07-31T03:44:46;17.62;85.58
82001;SHT30;71522;50.870;3.524;2023-07-31T03:47:12;17.62;85.76
82001;SHT30;71522;50.870;3.524;2023-07-31T03:49:39;17.58;85.83
82001;SHT30;71522;50.870;3.524;2023-07-31T03:52:05;17.62;85.80
82001;SHT30;71522;50.870;3.524;2023-07-31T03:54:31;17.62;85.89
82001;SHT30;71522;50.870;3.524;2023-07-31T03:56:56;17.59;85.93
82001;SHT30;71522;50.870;3.524;2023-07-31T03:59:22;17.61;85.83
82001;SHT30;71522;50.870;3.524;2023-07-31T04:01:48;17.66;85.84
82001;SHT30;71522;50.870;3.524;2023-07-31T04:04:14;17.65;85.94
82001;SHT30;71522;50.870;3.524;2023-07-31T04:06:39;17.59;86.16
82001;SHT30;71522;50.870;3.524;2023-07-31T04:09:06;17.69;85.92
82001;SHT30;71522;50.870;3.524;2023-07-31T04:11:32;17.65;86.14
82001;SHT30;71522;50.870;3.524;2023-07-31T04:13:58;17.65;85.91
82001;SHT30;71522;50.870;3.524;2023-07-31T04:16:24;17.68;86.06
82001;SHT30;71522;50.870;3.524;2023-07-31T04:18:49;17.66;86.28
82001;SHT30;71522;50.870;3.524;2023-07-31T04:21:15;17.66;86.34
82001;SHT30;71522;50.870;3.524;2023-07-31T04:23:41;17.71;86.28
82001;SHT30;71522;50.870;3.524;2023-07-31T04:26:07;17.69;86.23
82001;SHT30;71522;50.870;3.524;2023-07-31T04:28:33;17.72;86.01
82001;SHT30;71522;50.870;3.524;2023-07-31T04:31:00;17.68;86.35
82001;SHT30;71522;50.870;3.524;2023-07-31T04:33:26;17.68;86.58
82001;SHT30;71522;50.870;3.524;2023-07-31T04:35:53;17.61;86.61
82001;SHT30;71522;50.870;3.524;2023-07-31T04:38:20;17.62;86.86
82001;SHT30;71522;50.870;3.524;2023-07-31T04:40:47;17.64;86.76
82001;SHT30;71522;50.870;3.524;2023-07-31T04:43:13;17.68;86.58
82001;SHT30;71522;50.870;3.524;2023-07-31T04:45:39;17.68;86.40
82001;SHT30;71522;50.870;3.524;2023-07-31T04:48:05;17.68;86.39
82001;SHT30;71522;50.870;3.524;2023-07-31T04:50:30;17.65;86.26
82001;SHT30;71522;50.870;3.524;2023-07-31T04:52:56;17.66;86.27
82001;SHT30;71522;50.870;3.524;2023-07-31T04:55:22;17.71;86.08
82001;SHT30;71522;50.870;3.524;2023-07-31T04:57:48;17.69;85.94
82001;SHT30;71522;50.870;3.524;2023-07-31T05:00:14;17.74;85.94
82001;SHT30;71522;50.870;3.524;2023-07-31T05:02:39;17.66;85.98
82001;SHT30;71522;50.870;3.524;2023-07-31T05:05:05;17.66;86.09
82001;SHT30;71522;50.870;3.524;2023-07-31T05:07:31;17.72;85.82
82001;SHT30;71522;50.870;3.524;2023-07-31T05:09:57;17.72;85.67
82001;SHT30;71522;50.870;3.524;2023-07-31T05:12:23;17.74;85.78
82001;SHT30;71522;50.870;3.524;2023-07-31T05:14:49;17.78;85.66
82001;SHT30;71522;50.870;3.524;2023-07-31T05:17:14;17.81;85.76
82001;SHT30;71522;50.870;3.524;2023-07-31T05:19:40;17.82;85.41
82001;SHT30;71522;50.870;3.524;2023-07-31T05:22:06;17.85;85.69
82001;SHT30;71522;50.870;3.524;2023-07-31T05:24:32;17.89;85.31
82001;SHT30;71522;50.870;3.524;2023-07-31T05:26:58;17.87;85.18
82001;SHT30;71522;50.870;3.524;2023-07-31T05:29:24;17.90;84.98
82001;SHT30;71522;50.870;3.524;2023-07-31T05:31:50;17.92;85.06
82001;SHT30;71522;50.870;3.524;2023-07-31T05:34:16;17.92;85.09
82001;SHT30;71522;50.870;3.524;2023-07-31T05:36:41;17.90;84.95
82001;SHT30;71522;50.870;3.524;2023-07-31T05:39:07;17.90;84.55
82001;SHT30;71522;50.870;3.524;2023-07-31T05:41:35;17.87;84.88
82001;SHT30;71522;50.870;3.524;2023-07-31T05:44:01;17.87;84.97
82001;SHT30;71522;50.870;3.524;2023-07-31T05:46:27;17.90;84.86
82001;SHT30;71522;50.870;3.524;2023-07-31T05:48:53;17.92;84.69
82001;SHT30;71522;50.870;3.524;2023-07-31T05:51:18;17.92;84.64
82001;SHT30;71522;50.870;3.524;2023-07-31T05:53:44;17.93;84.47
82001;SHT30;71522;50.870;3.524;2023-07-31T05:56:10;17.93;84.26
82001;SHT30;71522;50.870;3.524;2023-07-31T05:58:35;18.02;84.15
82001;SHT30;71522;50.870;3.524;2023-07-31T06:01:01;18.00;84.35
82001;SHT30;71522;50.870;3.524;2023-07-31T06:03:27;18.07;84.10
82001;SHT30;71522;50.870;3.524;2023-07-31T06:05:54;18.17;83.96
82001;SHT30;71522;50.870;3.524;2023-07-31T06:08:20;18.20;83.44
82001;SHT30;71522;50.870;3.524;2023-07-31T06:10:45;18.22;83.61
82001;SHT30;71522;50.870;3.524;2023-07-31T06:13:11;18.30;83.17
82001;SHT30;71522;50.870;3.524;2023-07-31T06:15:37;18.32;83.18
82001;SHT30;71522;50.870;3.524;2023-07-31T06:18:02;18.36;82.94
82001;SHT30;71522;50.870;3.524;2023-07-31T06:20:29;18.37;82.71
82001;SHT30;71522;50.870;3.524;2023-07-31T06:22:54;18.47;82.60
82001;SHT30;71522;50.870;3.524;2023-07-31T06:25:20;18.60;81.86
82001;SHT30;71522;50.870;3.524;2023-07-31T06:27:45;18.68;81.61
82001;SHT30;71522;50.870;3.524;2023-07-31T06:30:12;18.71;82.21
82001;SHT30;71522;50.870;3.524;2023-07-31T06:32:37;18.76;81.71
82001;SHT30;71522;50.870;3.524;2023-07-31T06:35:03;18.81;80.80
82001;SHT30;71522;50.870;3.524;2023-07-31T06:37:29;18.79;80.91
82001;SHT30;71522;50.870;3.524;2023-07-31T06:39:55;18.75;81.29
82001;SHT30;71522;50.870;3.524;2023-07-31T06:42:21;18.79;81.55
82001;SHT30;71522;50.870;3.524;2023-07-31T06:44:47;18.78;81.60
82001;SHT30;71522;50.870;3.524;2023-07-31T06:47:13;18.78;80.78
82001;SHT30;71522;50.870;3.524;2023-07-31T06:49:38;18.72;81.01
82001;SHT30;71522;50.870;3.524;2023-07-31T06:52:04;18.68;80.79
82001;SHT30;71522;50.870;3.524;2023-07-31T06:54:30;18.62;81.01
82001;SHT30;71522;50.870;3.524;2023-07-31T06:56:57;18.58;81.29
82001;SHT30;71522;50.870;3.524;2023-07-31T06:59:23;18.53;80.60
82001;SHT30;71522;50.870;3.524;2023-07-31T07:01:48;18.55;80.68
82001;SHT30;71522;50.870;3.524;2023-07-31T07:04:15;18.55;80.45
82001;SHT30;71522;50.870;3.524;2023-07-31T07:06:41;18.71;80.84
82001;SHT30;71522;50.870;3.524;2023-07-31T07:09:08;18.87;80.91
82001;SHT30;71522;50.870;3.524;2023-07-31T07:11:34;19.02;80.24
82001;SHT30;71522;50.870;3.524;2023-07-31T07:14:00;19.06;79.31
82001;SHT30;71522;50.870;3.524;2023-07-31T07:16:26;19.03;79.05
82001;SHT30;71522;50.870;3.524;2023-07-31T07:18:51;18.99;78.96
82001;SHT30;71522;50.870;3.524;2023-07-31T07:21:20;18.95;79.47
82001;SHT30;71522;50.870;3.524;2023-07-31T07:23:46;18.94;79.75
82001;SHT30;71522;50.870;3.524;2023-07-31T07:26:12;18.95;79.83
82001;SHT30;71522;50.870;3.524;2023-07-31T07:28:38;18.87;78.74
82001;SHT30;71522;50.870;3.524;2023-07-31T07:31:03;18.85;79.85
82001;SHT30;71522;50.870;3.524;2023-07-31T07:33:32;18.87;80.74
82001;SHT30;71522;50.870;3.524;2023-07-31T07:36:01;18.94;79.70
82001;SHT30;71522;50.870;3.524;2023-07-31T07:38:27;19.11;79.34
82001;SHT30;71522;50.870;3.524;2023-07-31T07:40:53;19.20;79.31
82001;SHT30;71522;50.870;3.524;2023-07-31T07:43:19;19.30;78.96
82001;SHT30;71522;50.870;3.524;2023-07-31T07:45:46;19.54;78.61
82001;SHT30;71522;50.870;3.524;2023-07-31T07:48:12;19.70;78.76
82001;SHT30;71522;50.870;3.524;2023-07-31T07:50:38;19.78;78.45
82001;SHT30;71522;50.870;3.524;2023-07-31T07:53:05;19.84;77.54
82001;SHT30;71522;50.870;3.524;2023-07-31T07:55:30;19.85;77.66
82001;SHT30;71522;50.870;3.524;2023-07-31T07:57:56;19.91;78.45
82001;SHT30;71522;50.870;3.524;2023-07-31T08:00:22;20.01;77.58
82001;SHT30;71522;50.870;3.524;2023-07-31T08:02:48;19.91;77.56
82001;SHT30;71522;50.870;3.524;2023-07-31T08:05:13;19.97;77.65
82001;SHT30;71522;50.870;3.524;2023-07-31T08:07:40;20.01;77.79
82001;SHT30;71522;50.870;3.524;2023-07-31T08:10:06;20.05;77.25
82001;SHT30;71522;50.870;3.524;2023-07-31T08:12:32;20.02;77.26
82001;SHT30;71522;50.870;3.524;2023-07-31T08:14:58;20.02;77.06
82001;SHT30;71522;50.870;3.524;2023-07-31T08:17:25;20.15;76.57
82001;SHT30;71522;50.870;3.524;2023-07-31T08:19:51;20.21;76.78
82001;SHT30;71522;50.870;3.524;2023-07-31T08:22:17;20.09;77.57
82001;SHT30;71522;50.870;3.524;2023-07-31T08:24:42;20.05;77.25
82001;SHT30;71522;50.870;3.524;2023-07-31T08:27:08;19.91;77.57
82001;SHT30;71522;50.870;3.524;2023-07-31T08:29:34;19.98;77.63
82001;SHT30;71522;50.870;3.524;2023-07-31T08:32:00;20.24;77.90
82001;SHT30;71522;50.870;3.524;2023-07-31T08:34:27;20.42;77.47
82001;SHT30;71522;50.870;3.524;2023-07-31T08:36:55;20.46;76.91
82001;SHT30;71522;50.870;3.524;2023-07-31T08:39:21;20.59;77.02
82001;SHT30;71522;50.870;3.524;2023-07-31T08:41:47;20.67;76.65
82001;SHT30;71522;50.870;3.524;2023-07-31T08:44:14;20.70;76.15
82001;SHT30;71522;50.870;3.524;2023-07-31T08:46:42;20.73;75.64
82001;SHT30;71522;50.870;3.524;2023-07-31T08:49:07;20.83;76.22
82001;SHT30;71522;50.870;3.524;2023-07-31T08:51:34;20.81;76.47
82001;SHT30;71522;50.870;3.524;2023-07-31T08:54:01;20.86;76.70
82001;SHT30;71522;50.870;3.524;2023-07-31T08:56:32;20.81;76.51
82001;SHT30;71522;50.870;3.524;2023-07-31T08:58:59;20.72;77.09
82001;SHT30;71522;50.870;3.524;2023-07-31T09:01:30;20.59;76.22
82001;SHT30;71522;50.870;3.524;2023-07-31T09:04:00;20.55;76.61
82001;SHT30;71522;50.870;3.524;2023-07-31T09:06:30;20.40;77.81
82001;SHT30;71522;50.870;3.524;2023-07-31T09:08:57;20.36;77.68
82001;SHT30;71522;50.870;3.524;2023-07-31T09:11:24;20.28;77.69
82001;SHT30;71522;50.870;3.524;2023-07-31T09:13:52;20.29;77.65
82001;SHT30;71522;50.870;3.524;2023-07-31T09:16:18;20.42;77.78
82001;SHT30;71522;50.870;3.524;2023-07-31T09:18:54;20.48;78.30
82001;SHT30;71522;50.870;3.524;2023-07-31T09:21:24;20.57;78.03
82001;SHT30;71522;50.870;3.524;2023-07-31T09:23:53;20.69;78.36
82001;SHT30;71522;50.870;3.524;2023-07-31T09:26:36;20.56;77.71
82001;SHT30;71522;50.870;3.524;2023-07-31T09:29:06;20.52;78.40
82001;SHT30;71522;50.870;3.524;2023-07-31T09:33:59;20.22;78.78
82001;SHT30;71522;50.870;3.524;2023-07-31T09:36:29;20.22;78.51
82001;SHT30;71522;50.870;3.524;2023-07-31T09:39:02;20.29;79.43
82001;SHT30;71522;50.870;3.524;2023-07-31T09:41:29;20.45;79.53
82001;SHT30;71522;50.870;3.524;2023-07-31T09:43:55;20.57;78.27
82001;SHT30;71522;50.870;3.524;2023-07-31T09:46:21;20.79;78.40
82001;SHT30;71522;50.870;3.524;2023-07-31T09:48:47;20.83;78.54
82001;SHT30;71522;50.870;3.524;2023-07-31T09:51:13;20.91;78.28
82001;SHT30;71522;50.870;3.524;2023-07-31T09:53:39;21.01;77.63
82001;SHT30;71522;50.870;3.524;2023-07-31T09:56:05;21.18;77.10
82001;SHT30;71522;50.870;3.524;2023-07-31T09:58:34;21.15;77.65
82001;SHT30;71522;50.870;3.524;2023-07-31T10:01:04;20.98;77.54
82001;SHT30;71522;50.870;3.524;2023-07-31T10:03:31;20.80;77.68
82001;SHT30;71522;50.870;3.524;2023-07-31T10:06:03;20.60;78.11
82001;SHT30;71522;50.870;3.524;2023-07-31T10:08:33;20.57;78.15
82001;SHT30;71522;50.870;3.524;2023-07-31T10:11:02;20.65;78.24
82001;SHT30;71522;50.870;3.524;2023-07-31T10:13:30;20.76;78.27
82001;SHT30;71522;50.870;3.524;2023-07-31T10:16:03;20.59;77.59
82001;SHT30;71522;50.870;3.524;2023-07-31T10:18:30;20.70;78.03
82001;SHT30;71522;50.870;3.524;2023-07-31T10:20:57;21.04;76.87
82001;SHT30;71522;50.870;3.524;2023-07-31T10:23:24;21.27;76.93
82001;SHT30;71522;50.870;3.524;2023-07-31T10:25:53;21.32;76.43
82001;SHT30;71522;50.870;3.524;2023-07-31T10:28:21;21.27;75.81
82001;SHT30;71522;50.870;3.524;2023-07-31T10:30:49;21.04;76.26
82001;SHT30;71522;50.870;3.524;2023-07-31T10:33:21;20.98;76.88
82001;SHT30;71522;50.870;3.524;2023-07-31T10:35:48;21.01;77.55
82001;SHT30;71522;50.870;3.524;2023-07-31T10:38:15;21.04;76.64
82001;SHT30;71522;50.870;3.524;2023-07-31T10:40:42;21.10;76.55
82001;SHT30;71522;50.870;3.524;2023-07-31T10:43:07;21.04;76.73
82001;SHT30;71522;50.870;3.524;2023-07-31T10:45:42;20.94;76.16
82001;SHT30;71522;50.870;3.524;2023-07-31T10:48:16;20.86;77.05
82001;SHT30;71522;50.870;3.524;2023-07-31T10:50:56;20.79;77.10
82001;SHT30;71522;50.870;3.524;2023-07-31T10:53:26;20.86;77.44
82001;SHT30;71522;50.870;3.524;2023-07-31T10:55:52;20.97;77.11
82001;SHT30;71522;50.870;3.524;2023-07-31T10:58:20;21.00;77.06
82001;SHT30;71522;50.870;3.524;2023-07-31T11:00:49;21.08;77.46
82001;SHT30;71522;50.870;3.524;2023-07-31T11:03:19;21.14;76.53
82001;SHT30;71522;50.870;3.524;2023-07-31T11:08:35;21.08;75.74
82001;SHT30;71522;50.870;3.524;2023-07-31T11:11:08;21.08;76.28
82001;SHT30;71522;50.870;3.524;2023-07-31T11:13:53;21.24;76.24
82001;SHT30;71522;50.870;3.524;2023-07-31T11:16:22;21.39;76.45
82001;SHT30;71522;50.870;3.524;2023-07-31T11:18:49;21.49;75.83
82001;SHT30;71522;50.870;3.524;2023-07-31T11:21:25;21.62;74.89
82001;SHT30;71522;50.870;3.524;2023-07-31T11:23:56;21.73;74.51
82001;SHT30;71522;50.870;3.524;2023-07-31T11:26:24;21.78;75.10
82001;SHT30;71522;50.870;3.524;2023-07-31T11:28:51;21.78;75.37
82001;SHT30;71522;50.870;3.524;2023-07-31T11:31:18;21.94;74.48
82001;SHT30;71522;50.870;3.524;2023-07-31T11:33:45;22.16;74.36
82001;SHT30;71522;50.870;3.524;2023-07-31T11:36:16;22.31;73.16
82001;SHT30;71522;50.870;3.524;2023-07-31T11:38:42;22.34;72.95
82001;SHT30;71522;50.870;3.524;2023-07-31T11:41:08;22.39;74.02
82001;SHT30;71522;50.870;3.524;2023-07-31T11:43:34;22.34;73.34
82001;SHT30;71522;50.870;3.524;2023-07-31T11:46:05;22.31;73.24
82001;SHT30;71522;50.870;3.524;2023-07-31T11:48:33;22.12;73.94
82001;SHT30;71522;50.870;3.524;2023-07-31T11:51:02;21.94;73.43
82001;SHT30;71522;50.870;3.524;2023-07-31T11:55:59;21.92;73.28
82001;SHT30;71522;50.870;3.524;2023-07-31T11:58:28;21.75;73.86
82001;SHT30;71522;50.870;3.524;2023-07-31T12:00:55;21.54;75.35
82001;SHT30;71522;50.870;3.524;2023-07-31T12:03:22;21.35;76.13
82001;SHT30;71522;50.870;3.524;2023-07-31T12:05:48;21.23;76.84
82001;SHT30;71522;50.870;3.524;2023-07-31T12:08:14;21.14;78.16
82001;SHT30;71522;50.870;3.524;2023-07-31T12:10:42;21.20;78.42
82001;SHT30;71522;50.870;3.524;2023-07-31T12:13:11;21.10;78.54
82001;SHT30;71522;50.870;3.524;2023-07-31T12:15:41;21.01;79.73
82001;SHT30;71522;50.870;3.524;2023-07-31T12:18:10;20.87;79.69
82001;SHT30;71522;50.870;3.524;2023-07-31T12:20:43;20.73;80.58
82001;SHT30;71522;50.870;3.524;2023-07-31T12:23:21;20.67;80.58
82001;SHT30;71522;50.870;3.524;2023-07-31T12:26:16;20.70;81.52
82001;SHT30;71522;50.870;3.524;2023-07-31T12:28:44;20.66;81.12
82001;SHT30;71522;50.870;3.524;2023-07-31T12:31:15;20.55;82.16
82001;SHT30;71522;50.870;3.524;2023-07-31T12:33:44;20.45;82.35
82001;SHT30;71522;50.870;3.524;2023-07-31T12:36:17;20.33;82.42
82001;SHT30;71522;50.870;3.524;2023-07-31T12:38:44;20.24;82.88
82001;SHT30;71522;50.870;3.524;2023-07-31T12:41:10;20.15;83.08
82001;SHT30;71522;50.870;3.524;2023-07-31T12:43:37;19.95;83.19
82001;SHT30;71522;50.870;3.524;2023-07-31T12:46:04;19.75;84.05
82001;SHT30;71522;50.870;3.524;2023-07-31T12:48:32;19.71;84.38
82001;SHT30;71522;50.870;3.524;2023-07-31T12:50:58;19.78;84.53
82001;SHT30;71522;50.870;3.524;2023-07-31T12:53:23;19.70;84.39
82001;SHT30;71522;50.870;3.524;2023-07-31T12:55:49;19.80;84.62
82001;SHT30;71522;50.870;3.524;2023-07-31T12:58:16;19.75;84.53
82001;SHT30;71522;50.870;3.524;2023-07-31T13:00:46;19.70;84.60
82001;SHT30;71522;50.870;3.524;2023-07-31T13:03:29;19.61;84.33
82001;SHT30;71522;50.870;3.524;2023-07-31T13:05:55;19.60;84.15
82001;SHT30;71522;50.870;3.524;2023-07-31T13:08:21;19.57;84.70
82001;SHT30;71522;50.870;3.524;2023-07-31T13:10:47;19.63;84.79
82001;SHT30;71522;50.870;3.524;2023-07-31T13:13:13;19.67;84.67
82001;SHT30;71522;50.870;3.524;2023-07-31T13:15:39;19.77;84.48
82001;SHT30;71522;50.870;3.524;2023-07-31T13:18:05;19.84;83.75
82001;SHT30;71522;50.870;3.524;2023-07-31T13:20:32;19.95;83.88
82001;SHT30;71522;50.870;3.524;2023-07-31T13:22:57;20.05;83.13
82001;SHT30;71522;50.870;3.524;2023-07-31T13:25:23;20.11;83.23
82001;SHT30;71522;50.870;3.524;2023-07-31T13:27:49;20.12;82.82
82001;SHT30;71522;50.870;3.524;2023-07-31T13:30:15;20.22;83.13
82001;SHT30;71522;50.870;3.524;2023-07-31T13:32:41;20.26;82.86
82001;SHT30;71522;50.870;3.524;2023-07-31T13:35:08;20.25;83.17
82001;SHT30;71522;50.870;3.524;2023-07-31T13:37:39;20.33;82.89
82001;SHT30;71522;50.870;3.524;2023-07-31T13:40:05;20.39;82.52
82001;SHT30;71522;50.870;3.524;2023-07-31T13:42:32;20.56;81.94
82001;SHT30;71522;50.870;3.524;2023-07-31T13:44:58;20.69;81.57
82001;SHT30;71522;50.870;3.524;2023-07-31T13:47:24;20.73;81.59
82001;SHT30;71522;50.870;3.524;2023-07-31T13:49:50;20.60;82.00
82001;SHT30;71522;50.870;3.524;2023-07-31T13:52:19;20.53;82.06
82001;SHT30;71522;50.870;3.524;2023-07-31T13:54:45;20.46;82.13
82001;SHT30;71522;50.870;3.524;2023-07-31T13:57:11;20.43;82.61
82001;SHT30;71522;50.870;3.524;2023-07-31T13:59:37;20.46;82.91
82001;SHT30;71522;50.870;3.524;2023-07-31T14:02:02;20.39;82.67
82001;SHT30;71522;50.870;3.524;2023-07-31T14:04:32;20.43;82.95
82001;SHT30;71522;50.870;3.524;2023-07-31T14:06:58;20.48;83.29
82001;SHT30;71522;50.870;3.524;2023-07-31T14:09:27;20.43;82.70
82001;SHT30;71522;50.870;3.524;2023-07-31T14:12:04;20.42;82.84
82001;SHT30;71522;50.870;3.524;2023-07-31T14:14:29;20.32;83.33
82001;SHT30;71522;50.870;3.524;2023-07-31T14:16:55;20.29;83.24
82001;SHT30;71522;50.870;3.524;2023-07-31T14:19:23;20.18;83.11
82001;SHT30;71522;50.870;3.524;2023-07-31T14:21:50;20.04;83.67
82001;SHT30;71522;50.870;3.524;2023-07-31T14:24:43;19.98;83.74
82001;SHT30;71522;50.870;3.524;2023-07-31T14:27:12;19.91;84.30
82001;SHT30;71522;50.870;3.524;2023-07-31T14:29:38;19.88;84.46
82001;SHT30;71522;50.870;3.524;2023-07-31T14:32:04;19.84;84.42
82001;SHT30;71522;50.870;3.524;2023-07-31T14:34:31;19.85;84.61
82001;SHT30;71522;50.870;3.524;2023-07-31T14:36:57;19.84;84.53
82001;SHT30;71522;50.870;3.524;2023-07-31T14:39:23;19.84;84.77
82001;SHT30;71522;50.870;3.524;2023-07-31T14:41:49;19.85;84.93
82001;SHT30;71522;50.870;3.524;2023-07-31T14:44:15;19.84;84.99
82001;SHT30;71522;50.870;3.524;2023-07-31T14:46:41;19.88;84.77
82001;SHT30;71522;50.870;3.524;2023-07-31T14:49:07;19.82;84.84
82001;SHT30;71522;50.870;3.524;2023-07-31T14:51:45;19.82;84.66
82001;SHT30;71522;50.870;3.524;2023-07-31T14:54:11;19.88;84.26
82001;SHT30;71522;50.870;3.524;2023-07-31T14:56:40;19.85;84.24
82001;SHT30;71522;50.870;3.524;2023-07-31T14:59:05;19.91;84.39
82001;SHT30;71522;50.870;3.524;2023-07-31T15:01:33;19.88;84.66
82001;SHT30;71522;50.870;3.524;2023-07-31T15:03:59;19.90;84.26
82001;SHT30;71522;50.870;3.524;2023-07-31T15:06:25;19.82;84.62
82001;SHT30;71522;50.870;3.524;2023-07-31T15:08:51;19.78;85.03
82001;SHT30;71522;50.870;3.524;2023-07-31T15:11:21;19.74;84.87
82001;SHT30;71522;50.870;3.524;2023-07-31T15:14:00;19.80;84.59
82001;SHT30;71522;50.870;3.524;2023-07-31T15:16:26;19.75;84.80
82001;SHT30;71522;50.870;3.524;2023-07-31T15:18:54;19.59;85.26
82001;SHT30;71522;50.870;3.524;2023-07-31T15:21:20;19.56;85.45
82001;SHT30;71522;50.870;3.524;2023-07-31T15:23:46;19.49;85.85
82001;SHT30;71522;50.870;3.524;2023-07-31T15:26:12;19.56;85.65
82001;SHT30;71522;50.870;3.524;2023-07-31T15:28:38;19.59;85.74
82001;SHT30;71522;50.870;3.524;2023-07-31T15:31:04;19.64;85.60
82001;SHT30;71522;50.870;3.524;2023-07-31T15:33:30;19.60;85.53
82001;SHT30;71522;50.870;3.524;2023-07-31T15:35:56;19.66;85.72
82001;SHT30;71522;50.870;3.524;2023-07-31T15:38:23;19.67;85.48
82001;SHT30;71522;50.870;3.524;2023-07-31T15:40:53;19.67;85.56